createdAt,value
2022-11-29T00:01:27.218Z,25.70
2022-11-29T00:03:55.852Z,24.13
2022-11-29T00:06:27.644Z,25.63
2022-11-29T00:08:56.878Z,25.73
2022-11-29T00:11:43.896Z,26.10
2022-11-29T00:14:13.666Z,24.80
2022-11-29T00:16:41.701Z,25.13
2022-11-29T00:19:10.555Z,24.27
2022-11-29T00:21:40.137Z,25.63
2022-11-29T00:24:10.039Z,23.33
2022-11-29T00:26:38.080Z,24.23
2022-11-29T00:29:06.461Z,23.33
2022-11-29T00:31:35.107Z,24.33
2022-11-29T00:34:04.973Z,25.37
2022-11-29T00:36:32.840Z,24.97
2022-11-29T00:39:02.585Z,23.03
2022-11-29T00:41:30.509Z,24.03
2022-11-29T00:43:58.575Z,24.00
2022-11-29T00:46:26.772Z,24.10
2022-11-29T00:48:54.737Z,23.97
2022-11-29T00:51:22.663Z,23.90
2022-11-29T00:53:50.626Z,23.63
2022-11-29T00:56:19.922Z,24.73
2022-11-29T00:58:49.222Z,25.07
2022-11-29T01:01:17.787Z,25.30
2022-11-29T01:03:45.829Z,24.83
2022-11-29T01:06:15.522Z,23.87
2022-11-29T01:08:47.053Z,23.53
2022-11-29T01:11:18.501Z,24.37
2022-11-29T01:13:48.995Z,25.67
2022-11-29T01:16:17.804Z,25.10
2022-11-29T01:18:46.466Z,23.83
2022-11-29T01:21:16.107Z,24.97
2022-11-29T01:23:45.089Z,23.43
2022-11-29T01:26:15.118Z,23.13
2022-11-29T01:28:43.625Z,23.23
2022-11-29T01:31:16.907Z,24.57
2022-11-29T01:33:44.972Z,23.57
2022-11-29T01:36:14.476Z,23.97
2022-11-29T01:38:43.531Z,23.43
2022-11-29T01:41:14.663Z,24.67
2022-11-29T01:43:57.343Z,24.63
2022-11-29T01:46:30.893Z,25.90
2022-11-29T01:49:03.140Z,26.00
2022-11-29T01:51:32.174Z,25.23
2022-11-29T01:54:00.167Z,25.70
2022-11-29T01:56:30.021Z,24.70
2022-11-29T01:58:58.174Z,24.33
2022-11-29T02:01:28.532Z,25.63
2022-11-29T02:03:56.754Z,25.87
2022-11-29T02:06:25.322Z,22.73
2022-11-29T02:08:53.243Z,24.23
2022-11-29T02:11:49.717Z,26.27
2022-11-29T02:14:33.474Z,24.80
2022-11-29T02:17:11.494Z,24.37
2022-11-29T02:20:05.655Z,24.80
2022-11-29T02:22:39.299Z,23.33
2022-11-29T02:25:37.499Z,24.27
2022-11-29T02:28:43.252Z,26.17
2022-11-29T02:31:44.655Z,23.90
2022-11-29T02:34:30.532Z,23.70
2022-11-29T02:37:18.749Z,23.80
2022-11-29T02:39:58.814Z,23.83
2022-11-29T02:42:56.593Z,25.70
2022-11-29T02:45:43.866Z,24.80
2022-11-29T02:48:29.068Z,24.67
2022-11-29T02:51:05.867Z,25.43
2022-11-29T02:53:39.253Z,26.10
2022-11-29T02:56:14.613Z,26.20
2022-11-29T02:58:51.245Z,27.03
2022-11-29T03:01:25.438Z,26.30
2022-11-29T03:04:01.054Z,27.03
2022-11-29T03:06:39.916Z,27.53
2022-11-29T03:09:14.851Z,27.53
2022-11-29T03:11:49.476Z,26.50
2022-11-29T03:14:25.128Z,26.40
2022-11-29T03:17:02.645Z,25.63
2022-11-29T03:19:44.320Z,27.13
2022-11-29T03:22:23.269Z,26.43
2022-11-29T03:24:56.492Z,26.90
2022-11-29T03:27:35.945Z,26.90
2022-11-29T03:30:09.600Z,27.17
2022-11-29T03:32:46.178Z,27.53
2022-11-29T03:35:19.780Z,28.50
2022-11-29T03:37:56.367Z,29.47
2022-11-29T03:40:31.343Z,27.97
2022-11-29T03:43:06.948Z,28.07
2022-11-29T03:45:43.671Z,29.17
2022-11-29T03:48:16.709Z,25.73
2022-11-29T03:50:51.993Z,26.07
2022-11-29T03:53:29.801Z,24.70
2022-11-29T03:56:01.564Z,25.87
2022-11-29T03:58:49.993Z,25.20
2022-11-29T04:01:47.204Z,25.30
2022-11-29T04:04:55.532Z,24.77
2022-11-29T04:07:44.481Z,25.63
2022-11-29T04:10:31.962Z,24.43
2022-11-29T04:13:31.200Z,24.77
2022-11-29T04:16:38.509Z,25.83
2022-11-29T04:19:24.813Z,25.63
2022-11-29T04:22:24.833Z,24.20
2022-11-29T04:25:23.132Z,24.00
2022-11-29T04:28:24.320Z,23.37
2022-11-29T04:31:01.288Z,24.80
2022-11-29T04:33:48.450Z,24.23
2022-11-29T04:36:56.937Z,23.37
2022-11-29T04:39:50.028Z,24.23
2022-11-29T04:42:44.229Z,23.00
2022-11-29T04:45:40.709Z,23.70
2022-11-29T04:48:26.795Z,21.90
2022-11-29T04:51:04.178Z,22.10
2022-11-29T04:53:43.223Z,22.00
2022-11-29T04:56:16.252Z,21.37
2022-11-29T04:58:52.374Z,22.93
2022-11-29T05:01:28.967Z,24.00
2022-11-29T05:04:03.818Z,22.73
2022-11-29T05:06:43.189Z,23.23
2022-11-29T05:09:20.145Z,23.10
2022-11-29T05:12:00.588Z,21.87
2022-11-29T05:14:38.728Z,21.47
2022-11-29T05:17:26.664Z,22.57
2022-11-29T05:20:04.298Z,22.47
2022-11-29T05:22:40.545Z,22.47
2022-11-29T05:25:32.598Z,22.70
2022-11-29T05:28:10.418Z,23.03
2022-11-29T05:31:05.263Z,22.70
2022-11-29T05:33:56.252Z,21.27
2022-11-29T05:36:38.657Z,21.83
2022-11-29T05:39:24.148Z,21.87
2022-11-29T05:42:10.748Z,21.50
2022-11-29T05:44:43.435Z,20.70
2022-11-29T05:47:16.977Z,19.87
2022-11-29T05:49:59.307Z,19.83
2022-11-29T05:52:37.753Z,20.57
2022-11-29T05:55:18.781Z,20.63
2022-11-29T05:57:54.659Z,20.97
2022-11-29T06:00:23.126Z,20.17
2022-11-29T06:03:00.002Z,19.53
2022-11-29T06:05:37.775Z,21.00
2022-11-29T06:08:11.639Z,21.37
2022-11-29T06:10:41.417Z,21.07
2022-11-29T06:13:22.981Z,21.33
2022-11-29T06:16:36.890Z,19.63
2022-11-29T06:19:34.633Z,20.70
2022-11-29T06:22:20.841Z,22.13
2022-11-29T06:25:06.194Z,20.63
2022-11-29T06:27:53.764Z,21.00
2022-11-29T06:30:24.313Z,20.87
2022-11-29T06:33:01.266Z,21.07
2022-11-29T06:35:40.415Z,20.50
2022-11-29T06:38:18.907Z,20.07
2022-11-29T06:40:48.041Z,21.03
2022-11-29T06:43:16.943Z,21.13
2022-11-29T06:45:50.109Z,20.43
2022-11-29T06:48:24.725Z,20.07
2022-11-29T06:50:58.857Z,20.83
2022-11-29T06:53:38.009Z,20.80
2022-11-29T06:56:14.941Z,21.33
2022-11-29T06:58:50.004Z,21.97
2022-11-29T07:01:28.560Z,20.57
2022-11-29T07:04:09.637Z,21.70
2022-11-29T07:06:37.719Z,23.67
2022-11-29T07:09:14.311Z,24.60
2022-11-29T07:11:43.309Z,23.90
2022-11-29T07:14:11.711Z,24.03
2022-11-29T07:16:47.646Z,24.37
2022-11-29T07:19:25.770Z,25.20
2022-11-29T07:22:05.175Z,23.43
2022-11-29T07:24:48.895Z,22.80
2022-11-29T07:27:21.092Z,28.77
2022-11-29T07:30:05.623Z,26.33
2022-11-29T07:32:48.859Z,28.37
2022-11-29T07:35:25.408Z,26.40
2022-11-29T07:38:02.291Z,27.17
2022-11-29T07:40:38.158Z,27.67
2022-11-29T07:43:18.762Z,29.63
2022-11-29T07:45:47.187Z,30.23
2022-11-29T07:48:17.383Z,32.43
2022-11-29T07:50:48.321Z,29.10
2022-11-29T07:53:18.754Z,29.40
2022-11-29T07:55:48.626Z,31.97
2022-11-29T07:58:18.531Z,35.23
2022-11-29T08:00:46.991Z,33.70
2022-11-29T08:03:15.204Z,37.37
2022-11-29T08:05:47.376Z,34.53
2022-11-29T08:08:15.806Z,35.10
2022-11-29T08:10:46.643Z,33.60
2022-11-29T08:13:16.089Z,32.47
2022-11-29T08:15:48.262Z,35.63
2022-11-29T08:18:16.934Z,30.07
2022-11-29T08:20:46.145Z,35.77
2022-11-29T08:23:14.963Z,34.37
2022-11-29T08:25:43.321Z,34.47
2022-11-29T08:28:11.359Z,32.63
2022-11-29T08:30:40.743Z,33.47
2022-11-29T08:33:09.910Z,30.67
2022-11-29T08:35:39.059Z,32.63
2022-11-29T08:38:07.076Z,34.77
2022-11-29T08:40:35.887Z,37.07
2022-11-29T08:43:03.797Z,34.47
2022-11-29T08:45:31.759Z,32.13
2022-11-29T08:48:01.487Z,35.73
2022-11-29T08:50:29.554Z,35.57
2022-11-29T08:53:17.211Z,34.87
2022-11-29T08:55:46.602Z,34.13
2022-11-29T08:58:16.440Z,34.47
2022-11-29T09:00:46.752Z,37.97
2022-11-29T09:03:33.297Z,35.87
2022-11-29T09:06:12.009Z,33.70
2022-11-29T09:08:40.954Z,35.63
2022-11-29T09:11:13.237Z,35.30
2022-11-29T09:13:41.882Z,34.43
2022-11-29T09:16:11.924Z,34.73
2022-11-29T09:18:45.960Z,37.30
2022-11-29T09:21:17.961Z,36.87
2022-11-29T09:23:47.482Z,36.30
2022-11-29T09:26:19.471Z,33.20
2022-11-29T09:28:47.654Z,34.00
2022-11-29T09:31:16.916Z,33.07
2022-11-29T09:33:46.593Z,32.87
2022-11-29T09:36:14.824Z,34.37
2022-11-29T09:38:42.834Z,31.80
2022-11-29T09:41:35.847Z,30.83
2022-11-29T09:44:13.757Z,31.90
2022-11-29T09:46:52.249Z,30.80
2022-11-29T09:49:41.024Z,30.50
2022-11-29T09:52:18.857Z,27.97
2022-11-29T09:54:56.613Z,29.37
2022-11-29T09:57:26.994Z,28.87
2022-11-29T09:59:59.901Z,29.03
2022-11-29T10:02:34.054Z,27.23
2022-11-29T10:05:07.938Z,29.63
2022-11-29T10:07:42.381Z,26.17
2022-11-29T10:10:16.232Z,26.00
2022-11-29T10:12:49.316Z,28.13
2022-11-29T10:15:22.761Z,26.60
2022-11-29T10:17:55.663Z,27.43
2022-11-29T10:20:26.585Z,26.27
2022-11-29T10:22:58.512Z,26.10
2022-11-29T10:25:30.777Z,24.50
2022-11-29T10:27:59.401Z,24.17
2022-11-29T10:30:27.618Z,24.50
2022-11-29T10:33:00.110Z,23.20
2022-11-29T10:35:29.459Z,23.23
2022-11-29T10:40:59.200Z,23.40
2022-11-29T10:43:27.667Z,27.03
2022-11-29T10:45:57.061Z,24.07
2022-11-29T10:48:28.840Z,26.63
2022-11-29T10:50:56.756Z,25.97
2022-11-29T10:53:27.590Z,27.93
2022-11-29T10:56:02.393Z,27.83
2022-11-29T10:58:31.448Z,29.37
2022-11-29T11:01:01.826Z,28.70
2022-11-29T11:03:35.054Z,30.00
2022-11-29T11:06:14.924Z,28.27
2022-11-29T11:08:48.508Z,29.83
2022-11-29T11:11:24.235Z,31.90
2022-11-29T11:14:00.092Z,31.53
2022-11-29T11:16:37.119Z,30.43
2022-11-29T11:19:30.809Z,36.80
2022-11-29T11:22:00.293Z,44.90
2022-11-29T11:24:33.258Z,47.60
2022-11-29T11:27:02.377Z,52.33
2022-11-29T11:29:37.495Z,36.47
2022-11-29T11:32:08.789Z,34.37
2022-11-29T11:34:38.679Z,34.50
2022-11-29T11:37:23.533Z,31.73
2022-11-29T11:39:55.809Z,31.10
2022-11-29T11:42:39.423Z,34.00
2022-11-29T11:45:30.878Z,33.70
2022-11-29T11:48:00.716Z,31.23
2022-11-29T11:50:33.771Z,30.60
2022-11-29T11:53:05.827Z,29.50
2022-11-29T11:55:38.580Z,28.90
2022-11-29T11:58:19.276Z,29.70
2022-11-29T12:01:06.057Z,28.60
2022-11-29T12:03:49.270Z,29.87
2022-11-29T12:06:32.826Z,28.57
2022-11-29T12:09:05.742Z,29.50
2022-11-29T12:11:42.565Z,28.07
2022-11-29T12:14:19.353Z,27.00
2022-11-29T12:16:49.889Z,27.27
2022-11-29T12:19:22.948Z,26.53
2022-11-29T12:21:56.938Z,27.47
2022-11-29T12:24:29.702Z,25.77
2022-11-29T12:27:05.699Z,24.53
2022-11-29T12:29:35.763Z,24.73
2022-11-29T12:32:19.938Z,25.03
2022-11-29T12:35:01.667Z,24.90
2022-11-29T12:37:36.645Z,25.20
2022-11-29T12:40:15.363Z,27.60
2022-11-29T12:42:53.371Z,28.60
2022-11-29T12:45:35.568Z,26.57
2022-11-29T12:48:14.780Z,25.37
2022-11-29T12:50:53.345Z,24.37
2022-11-29T12:53:39.075Z,24.87
2022-11-29T12:56:16.667Z,24.30
2022-11-29T12:59:02.962Z,25.30
2022-11-29T13:01:41.451Z,24.33
2022-11-29T13:04:20.319Z,24.20
2022-11-29T13:06:56.707Z,23.70
2022-11-29T13:10:01.452Z,23.90
2022-11-29T13:12:36.448Z,22.80
2022-11-29T13:15:10.619Z,22.53
2022-11-29T13:17:42.999Z,24.03
2022-11-29T13:20:25.749Z,23.13
2022-11-29T13:22:59.958Z,22.10
2022-11-29T13:25:33.739Z,22.83
2022-11-29T13:28:05.634Z,21.53
2022-11-29T13:30:36.964Z,21.30
2022-11-29T13:33:13.276Z,21.63
2022-11-29T13:35:47.101Z,20.97
2022-11-29T13:38:24.166Z,19.30
2022-11-29T13:41:00.735Z,19.90
2022-11-29T13:43:39.418Z,18.13
2022-11-29T13:46:20.698Z,17.27
2022-11-29T13:48:50.663Z,16.90
2022-11-29T13:51:33.870Z,17.40
2022-11-29T13:54:04.419Z,17.70
2022-11-29T13:56:42.869Z,20.33
2022-11-29T13:59:19.644Z,17.17
2022-11-29T14:01:51.466Z,17.90
2022-11-29T14:04:34.056Z,17.17
2022-11-29T14:07:08.120Z,18.00
2022-11-29T14:09:43.281Z,15.60
2022-11-29T14:12:36.725Z,15.10
2022-11-29T14:15:17.641Z,15.37
2022-11-29T14:17:59.416Z,16.57
2022-11-29T14:20:55.676Z,17.33
2022-11-29T14:23:39.035Z,20.83
2022-11-29T14:26:31.166Z,17.10
2022-11-29T14:29:00.122Z,16.27
2022-11-29T14:31:54.384Z,15.67
2022-11-29T14:34:48.767Z,13.43
2022-11-29T14:37:35.065Z,14.57
2022-11-29T14:40:14.063Z,12.10
2022-11-29T14:42:49.631Z,10.03
2022-11-29T14:45:27.789Z,10.07
2022-11-29T14:47:56.707Z,9.57
2022-11-29T14:50:37.571Z,8.77
2022-11-29T14:53:06.657Z,8.90
2022-11-29T14:55:37.128Z,9.50
2022-11-29T14:58:16.966Z,8.70
2022-11-29T15:01:06.627Z,9.10
2022-11-29T15:03:47.746Z,16.13
2022-11-29T15:06:25.215Z,11.23
2022-11-29T15:09:02.035Z,10.43
2022-11-29T15:11:48.041Z,9.50
2022-11-29T15:14:24.262Z,9.37
2022-11-29T15:17:03.837Z,10.87
2022-11-29T15:19:58.230Z,16.30
2022-11-29T15:22:30.770Z,10.67
2022-11-29T15:25:03.182Z,11.57
2022-11-29T15:27:35.155Z,12.70
2022-11-29T15:30:20.456Z,25.30
2022-11-29T15:32:48.588Z,25.73
2022-11-29T15:35:20.292Z,19.87
2022-11-29T15:37:50.626Z,19.20
2022-11-29T15:40:20.808Z,19.07
2022-11-29T15:43:01.121Z,12.97
2022-11-29T15:45:32.425Z,15.57
2022-11-29T15:48:20.670Z,15.97
2022-11-29T15:50:57.275Z,14.63
2022-11-29T15:53:31.901Z,14.43
2022-11-29T15:56:04.687Z,15.50
2022-11-29T15:58:34.777Z,14.37
2022-11-29T16:01:05.641Z,15.00
2022-11-29T16:03:36.547Z,13.33
2022-11-29T16:06:16.334Z,14.37
2022-11-29T16:08:45.923Z,13.63
2022-11-29T16:11:20.677Z,13.37
2022-11-29T16:14:28.331Z,13.37
2022-11-29T16:16:58.258Z,12.77
2022-11-29T16:19:31.403Z,15.30
2022-11-29T16:22:04.275Z,21.30
2022-11-29T16:24:35.227Z,16.97
2022-11-29T16:27:03.922Z,20.07
2022-11-29T16:29:38.402Z,16.97
2022-11-29T16:32:28.192Z,15.50
2022-11-29T16:34:57.376Z,16.20
2022-11-29T16:37:27.507Z,15.40
2022-11-29T16:40:01.064Z,14.87
2022-11-29T16:42:30.852Z,14.37
2022-11-29T16:45:06.632Z,15.03
2022-11-29T16:47:52.357Z,15.10
2022-11-29T16:50:21.818Z,14.63
2022-11-29T16:52:56.050Z,14.27
2022-11-29T16:55:25.995Z,12.77
2022-11-29T16:57:54.034Z,13.30
2022-11-29T17:00:32.505Z,13.37
2022-11-29T17:03:00.979Z,13.50
2022-11-29T17:05:29.301Z,14.50
2022-11-29T17:07:57.428Z,13.33
2022-11-29T17:10:27.515Z,13.20
2022-11-29T17:12:55.424Z,12.77
2022-11-29T17:15:23.380Z,12.83
2022-11-29T17:17:51.279Z,12.93
2022-11-29T17:20:19.453Z,14.00
2022-11-29T17:22:47.380Z,13.67
2022-11-29T17:25:15.761Z,13.37
2022-11-29T17:27:45.119Z,14.67
2022-11-29T17:30:14.449Z,14.00
2022-11-29T17:32:44.499Z,14.37
2022-11-29T17:35:12.417Z,16.50
2022-11-29T17:37:40.325Z,16.90
2022-11-29T17:40:09.764Z,17.50
2022-11-29T17:42:37.860Z,17.10
2022-11-29T17:45:08.293Z,18.87
2022-11-29T17:47:36.216Z,16.60
2022-11-29T17:50:04.348Z,17.70
2022-11-29T17:52:32.245Z,17.93
2022-11-29T17:55:00.176Z,17.40
2022-11-29T17:57:28.111Z,17.47
2022-11-29T17:59:56.016Z,16.97
2022-11-29T18:02:25.309Z,17.23
2022-11-29T18:05:51.291Z,16.67
2022-11-29T18:08:02.009Z,15.83
2022-11-29T18:10:30.326Z,16.63
2022-11-29T18:13:00.179Z,17.23
2022-11-29T18:15:28.349Z,17.23
2022-11-29T18:17:57.669Z,27.97
2022-11-29T18:20:27.546Z,21.37
2022-11-29T18:22:56.191Z,27.23
2022-11-29T18:25:38.875Z,23.00
2022-11-29T18:28:11.212Z,21.90
2022-11-29T18:30:42.327Z,20.83
2022-11-29T18:33:11.794Z,18.37
2022-11-29T18:35:39.637Z,16.80
2022-11-29T18:38:15.225Z,18.27
2022-11-29T18:40:48.509Z,17.00
2022-11-29T18:43:17.791Z,18.43
2022-11-29T18:45:46.419Z,18.30
2022-11-29T18:48:15.749Z,29.90
2022-11-29T18:50:43.698Z,19.80
2022-11-29T18:53:11.575Z,21.07
2022-11-29T18:55:44.124Z,17.67
2022-11-29T18:58:12.026Z,18.53
2022-11-29T19:00:40.805Z,18.20
2022-11-29T19:03:08.889Z,18.53
2022-11-29T19:05:38.156Z,17.87
2022-11-29T19:08:06.481Z,17.23
2022-11-29T19:10:34.401Z,16.57
2022-11-29T19:13:02.361Z,17.00
2022-11-29T19:15:30.289Z,17.37
2022-11-29T19:17:58.233Z,17.77
2022-11-29T19:20:26.145Z,17.03
2022-11-29T19:23:00.289Z,18.60
2022-11-29T19:25:30.233Z,16.83
2022-11-29T19:27:58.150Z,18.53
2022-11-29T19:30:26.110Z,17.17
2022-11-29T19:32:54.088Z,16.13
2022-11-29T19:35:22.054Z,15.87
2022-11-29T19:37:50.099Z,16.93
2022-11-29T19:40:19.963Z,16.80
2022-11-29T19:42:48.719Z,17.10
2022-11-29T19:45:18.038Z,17.90
2022-11-29T19:47:46.421Z,16.80
2022-11-29T19:50:14.382Z,17.90
2022-11-29T19:52:42.763Z,17.20
2022-11-29T19:55:10.899Z,17.87
2022-11-29T19:57:40.255Z,19.07
2022-11-29T20:00:11.085Z,19.17
2022-11-29T20:02:39.049Z,19.07
2022-11-29T20:05:08.234Z,20.33
2022-11-29T20:07:36.414Z,20.10
2022-11-29T20:10:08.101Z,19.23
2022-11-29T20:12:39.601Z,18.53
2022-11-29T20:15:09.191Z,18.00
2022-11-29T20:17:37.129Z,18.43
2022-11-29T20:20:05.762Z,19.03
2022-11-29T20:22:33.770Z,20.00
2022-11-29T20:25:01.780Z,20.47
2022-11-29T20:27:29.812Z,19.93
2022-11-29T20:29:59.193Z,19.13
2022-11-29T20:32:27.521Z,18.53
2022-11-29T20:34:56.043Z,20.10
2022-11-29T20:37:36.023Z,17.53
2022-11-29T20:40:07.583Z,19.60
2022-11-29T20:43:02.704Z,20.13
2022-11-29T20:45:32.772Z,18.67
2022-11-29T20:48:09.242Z,19.20
2022-11-29T20:50:37.744Z,19.40
2022-11-29T20:53:19.978Z,19.63
2022-11-29T20:55:49.544Z,21.43
2022-11-29T20:58:19.400Z,19.67
2022-11-29T21:00:48.870Z,19.27
2022-11-29T21:03:17.874Z,21.37
2022-11-29T21:05:46.798Z,21.33
2022-11-29T21:08:15.494Z,21.57
2022-11-29T21:10:43.898Z,21.63
2022-11-29T21:13:16.100Z,21.33
2022-11-29T21:15:44.698Z,22.20
2022-11-29T21:18:23.723Z,21.87
2022-11-29T21:21:01.902Z,23.00
2022-11-29T21:23:39.119Z,24.53
2022-11-29T21:26:11.929Z,22.47
2022-11-29T21:28:47.754Z,22.97
2022-11-29T21:31:20.335Z,22.80
2022-11-29T21:33:51.044Z,22.40
2022-11-29T21:36:19.074Z,22.43
2022-11-29T21:38:53.917Z,22.17
2022-11-29T21:41:24.277Z,23.17
2022-11-29T21:44:06.523Z,22.57
2022-11-29T21:46:39.588Z,24.40
2022-11-29T21:49:09.154Z,27.67
2022-11-29T21:51:37.607Z,25.10
2022-11-29T21:54:06.030Z,27.00
2022-11-29T21:56:34.352Z,26.30
2022-11-29T21:59:02.358Z,28.30
2022-11-29T22:01:30.484Z,29.70
2022-11-29T22:03:58.648Z,27.77
2022-11-29T22:06:31.658Z,26.43
2022-11-29T22:09:00.057Z,28.30
2022-11-29T22:11:34.587Z,27.60
2022-11-29T22:14:16.914Z,27.93
2022-11-29T22:16:48.137Z,26.60
2022-11-29T22:19:17.781Z,28.10
2022-11-29T22:21:50.060Z,27.73
2022-11-29T22:24:20.720Z,28.97
2022-11-29T22:26:50.001Z,29.87
2022-11-29T22:29:30.940Z,26.93
2022-11-29T22:32:05.908Z,28.93
2022-11-29T22:34:34.156Z,30.97
2022-11-29T22:37:03.402Z,29.90
2022-11-29T22:39:31.520Z,30.10
2022-11-29T22:41:59.458Z,28.57
2022-11-29T22:44:27.433Z,30.93
2022-11-29T22:46:55.514Z,27.63
2022-11-29T22:49:23.552Z,27.67
2022-11-29T22:51:52.277Z,27.03
2022-11-29T22:54:21.819Z,26.57
2022-11-29T22:56:49.867Z,26.77
2022-11-29T22:59:21.394Z,27.87
2022-11-29T23:01:49.378Z,24.83
2022-11-29T23:04:17.358Z,28.30
2022-11-29T23:06:46.817Z,25.20
2022-11-29T23:09:16.880Z,27.73
2022-11-29T23:12:00.110Z,26.93
2022-11-29T23:14:37.061Z,26.30
2022-11-29T23:17:05.000Z,28.07
2022-11-29T23:19:32.937Z,25.97
2022-11-29T23:22:00.854Z,27.87
2022-11-29T23:24:28.726Z,27.97
2022-11-29T23:26:58.029Z,27.00
2022-11-29T23:29:25.901Z,27.00
2022-11-29T23:31:53.890Z,25.77
2022-11-29T23:34:22.573Z,26.70
2022-11-29T23:36:53.131Z,26.90
2022-11-29T23:39:21.782Z,28.27
2022-11-29T23:41:49.754Z,27.30
2022-11-29T23:44:18.985Z,28.40
2022-11-29T23:46:46.929Z,27.63
2022-11-29T23:49:14.796Z,26.80
2022-11-29T23:51:42.719Z,24.87
2022-11-29T23:54:10.712Z,27.90
2022-11-29T23:56:38.602Z,27.47
2022-11-29T23:59:06.960Z,28.07
